createdAt,value
2018-04-18T00:02:26.399Z,58.17
2018-04-18T00:04:54.762Z,57.82
2018-04-18T00:07:23.134Z,57.91
2018-04-18T00:09:51.513Z,57.78
2018-04-18T00:12:19.875Z,57.77
2018-04-18T00:14:48.534Z,57.94
2018-04-18T00:17:17.704Z,58.08
2018-04-18T00:19:46.256Z,58.12
2018-04-18T00:22:14.694Z,58.00
2018-04-18T00:24:44.707Z,58.06
2018-04-18T00:27:14.335Z,58.27
2018-04-18T00:29:43.504Z,58.56
2018-04-18T00:32:11.991Z,58.89
2018-04-18T00:34:41.191Z,58.63
2018-04-18T00:37:10.829Z,58.51
2018-04-18T00:39:39.550Z,58.46
2018-04-18T00:42:07.946Z,58.38
2018-04-18T00:44:36.377Z,58.67
2018-04-18T00:47:04.824Z,58.65
2018-04-18T00:49:33.939Z,58.68
2018-04-18T00:52:02.347Z,58.80
2018-04-18T00:54:31.045Z,58.50
2018-04-18T00:56:59.405Z,58.12
2018-04-18T00:59:27.800Z,58.06
2018-04-18T01:01:56.158Z,58.13
2018-04-18T01:04:25.441Z,57.81
2018-04-18T01:06:54.301Z,57.58
2018-04-18T01:09:23.526Z,57.58
2018-04-18T01:11:51.935Z,57.37
2018-04-18T01:14:20.320Z,57.42
2018-04-18T01:16:48.727Z,57.41
2018-04-18T01:19:17.188Z,57.30
2018-04-18T01:21:45.549Z,56.71
2018-04-18T01:24:14.346Z,56.95
2018-04-18T01:26:43.513Z,57.50
2018-04-18T01:29:11.962Z,56.96
2018-04-18T01:31:40.341Z,56.89
2018-04-18T01:34:08.717Z,56.49
2018-04-18T01:36:37.936Z,56.23
2018-04-18T01:39:07.128Z,56.17
2018-04-18T01:41:36.284Z,56.04
2018-04-18T01:44:05.102Z,55.90
2018-04-18T01:46:34.230Z,56.39
2018-04-18T01:49:20.581Z,56.48
2018-04-18T01:51:49.010Z,56.37
2018-04-18T01:54:17.400Z,56.60
2018-04-18T01:56:45.828Z,56.58
2018-04-18T01:59:14.225Z,57.07
2018-04-18T02:01:43.361Z,57.33
2018-04-18T02:04:11.778Z,57.71
2018-04-18T02:06:40.165Z,57.39
2018-04-18T02:09:08.558Z,57.52
2018-04-18T02:11:36.908Z,57.61
2018-04-18T02:14:05.308Z,57.57
2018-04-18T02:16:34.457Z,57.96
2018-04-18T02:19:02.936Z,57.93
2018-04-18T02:21:31.371Z,57.95
2018-04-18T02:23:59.749Z,57.92
2018-04-18T02:26:28.149Z,57.92
2018-04-18T02:28:57.424Z,58.30
2018-04-18T02:31:25.801Z,57.92
2018-04-18T02:33:54.244Z,57.71
2018-04-18T02:36:22.947Z,58.06
2018-04-18T02:38:51.333Z,58.15
2018-04-18T02:41:19.764Z,58.43
2018-04-18T02:43:48.147Z,58.60
2018-04-18T02:46:16.524Z,58.54
2018-04-18T02:48:44.999Z,58.36
2018-04-18T02:51:13.377Z,58.65
2018-04-18T02:53:42.973Z,58.60
2018-04-18T02:56:11.384Z,58.61
2018-04-18T02:58:39.771Z,58.31
2018-04-18T03:01:08.218Z,58.42
2018-04-18T03:03:37.449Z,58.33
2018-04-18T03:06:05.903Z,58.60
2018-04-18T03:08:34.270Z,58.65
2018-04-18T03:11:03.408Z,58.99
2018-04-18T03:13:32.515Z,58.79
2018-04-18T03:16:02.439Z,58.59
2018-04-18T03:18:30.821Z,59.17
2018-04-18T03:20:59.206Z,58.93
2018-04-18T03:23:27.583Z,58.67
2018-04-18T03:25:56.020Z,59.10
2018-04-18T03:28:24.355Z,59.05
2018-04-18T03:30:53.533Z,59.12
2018-04-18T03:33:21.951Z,59.20
2018-04-18T03:35:51.816Z,58.97
2018-04-18T03:38:20.239Z,59.05
2018-04-18T03:40:48.730Z,59.22
2018-04-18T03:43:17.934Z,59.36
2018-04-18T03:45:46.334Z,59.68
2018-04-18T03:48:14.833Z,59.63
2018-04-18T03:50:43.212Z,59.40
2018-04-18T03:53:11.626Z,59.52
2018-04-18T03:55:40.830Z,59.55
2018-04-18T03:58:10.034Z,59.50
2018-04-18T04:00:38.432Z,59.70
2018-04-18T04:03:06.797Z,60.09
2018-04-18T04:05:35.945Z,59.92
2018-04-18T04:08:04.422Z,60.26
2018-04-18T04:10:32.830Z,60.29
2018-04-18T04:13:02.843Z,60.55
2018-04-18T04:15:31.279Z,60.41
2018-04-18T04:18:18.833Z,60.31
2018-04-18T04:21:05.596Z,60.23
2018-04-18T04:23:51.667Z,60.27
2018-04-18T04:26:22.615Z,60.30
2018-04-18T04:28:51.848Z,60.28
2018-04-18T04:31:20.617Z,60.14
2018-04-18T04:33:51.182Z,60.35
2018-04-18T04:36:20.506Z,60.57
2018-04-18T04:38:49.684Z,60.35
2018-04-18T04:41:20.405Z,60.42
2018-04-18T04:43:48.904Z,60.45
2018-04-18T04:46:17.468Z,60.73
2018-04-18T04:48:45.883Z,60.54
2018-04-18T04:51:14.265Z,61.12
2018-04-18T04:53:42.702Z,60.88
2018-04-18T04:56:11.925Z,61.10
2018-04-18T04:58:40.308Z,60.88
2018-04-18T05:01:09.724Z,61.03
2018-04-18T05:03:39.489Z,61.05
2018-04-18T05:06:08.601Z,60.97
2018-04-18T05:08:37.253Z,60.97
2018-04-18T05:11:05.669Z,61.02
2018-04-18T05:13:34.057Z,61.03
2018-04-18T05:16:02.466Z,61.05
2018-04-18T05:18:30.915Z,61.05
2018-04-18T05:20:59.420Z,61.09
2018-04-18T05:23:28.612Z,61.09
2018-04-18T05:25:57.048Z,61.04
2018-04-18T05:28:25.532Z,60.86
2018-04-18T05:30:53.994Z,61.04
2018-04-18T05:33:22.480Z,60.76
2018-04-18T05:35:52.461Z,60.53
2018-04-18T05:38:20.863Z,60.50
2018-04-18T05:40:49.272Z,60.28
2018-04-18T05:43:18.578Z,60.07
2018-04-18T05:45:47.808Z,60.09
2018-04-18T05:48:16.293Z,59.23
2018-04-18T05:50:44.662Z,59.33
2018-04-18T05:53:13.067Z,59.38
2018-04-18T05:55:42.630Z,58.97
2018-04-18T05:58:11.877Z,59.22
2018-04-18T06:00:41.918Z,59.11
2018-04-18T06:03:10.450Z,58.55
2018-04-18T06:05:38.850Z,58.61
2018-04-18T06:08:09.453Z,58.18
2018-04-18T06:10:37.885Z,58.34
2018-04-18T06:13:06.413Z,58.08
2018-04-18T06:15:34.835Z,58.25
2018-04-18T06:18:04.357Z,57.92
2018-04-18T06:20:33.599Z,57.89
2018-04-18T06:23:02.702Z,57.81
2018-04-18T06:25:31.123Z,57.89
2018-04-18T06:28:00.964Z,57.85
2018-04-18T06:30:29.316Z,57.68
2018-04-18T06:32:57.713Z,57.52
2018-04-18T06:35:26.106Z,57.31
2018-04-18T06:37:55.337Z,57.29
2018-04-18T06:40:23.805Z,57.12
2018-04-18T06:42:52.233Z,56.79
2018-04-18T06:45:20.667Z,56.86
2018-04-18T06:47:49.194Z,56.77
2018-04-18T06:50:17.604Z,56.70
2018-04-18T06:52:45.973Z,56.49
2018-04-18T06:55:15.056Z,56.38
2018-04-18T06:57:43.446Z,56.03
2018-04-18T07:00:11.846Z,56.13
2018-04-18T07:02:40.214Z,55.93
2018-04-18T07:05:09.475Z,55.58
2018-04-18T07:07:41.534Z,55.11
2018-04-18T07:10:11.671Z,55.00
2018-04-18T07:12:40.799Z,55.05
2018-04-18T07:15:10.004Z,54.84
2018-04-18T07:17:38.746Z,54.69
2018-04-18T07:20:08.697Z,54.41
2018-04-18T07:22:37.103Z,54.01
2018-04-18T07:25:05.469Z,53.61
2018-04-18T07:27:33.822Z,53.26
2018-04-18T07:30:02.265Z,52.24
2018-04-18T07:32:31.437Z,52.36
2018-04-18T07:35:00.110Z,52.54
2018-04-18T07:37:28.517Z,51.73
2018-04-18T07:39:56.997Z,51.64
2018-04-18T07:42:26.163Z,51.75
2018-04-18T07:44:54.859Z,51.82
2018-04-18T07:47:23.307Z,51.35
2018-04-18T07:49:51.756Z,50.95
2018-04-18T07:52:20.196Z,50.87
2018-04-18T07:54:48.637Z,51.12
2018-04-18T07:57:17.872Z,50.77
2018-04-18T07:59:46.319Z,50.93
2018-04-18T08:02:14.958Z,50.33
2018-04-18T08:04:43.949Z,50.02
2018-04-18T08:07:14.585Z,49.03
2018-04-18T08:09:42.990Z,49.42
2018-04-18T08:12:12.525Z,49.34
2018-04-18T08:14:41.502Z,48.86
2018-04-18T08:17:09.933Z,48.81
2018-04-18T08:19:38.377Z,49.13
2018-04-18T08:22:07.597Z,49.19
2018-04-18T08:24:36.167Z,49.35
2018-04-18T08:27:04.738Z,48.81
2018-04-18T08:29:33.858Z,48.55
2018-04-18T08:32:03.057Z,47.81
2018-04-18T08:34:31.432Z,47.56
2018-04-18T08:36:59.800Z,47.29
2018-04-18T08:39:29.007Z,47.34
2018-04-18T08:41:58.278Z,47.44
2018-04-18T08:44:26.654Z,47.28
2018-04-18T08:46:55.827Z,47.34
2018-04-18T08:49:24.233Z,47.13
2018-04-18T08:51:52.675Z,46.62
2018-04-18T08:54:21.050Z,46.65
2018-04-18T08:56:50.804Z,46.32
2018-04-18T08:59:19.352Z,45.79
2018-04-18T09:01:47.862Z,45.62
2018-04-18T09:04:17.921Z,44.77
2018-04-18T09:06:46.287Z,45.11
2018-04-18T09:09:14.665Z,44.92
2018-04-18T09:11:43.355Z,44.82
2018-04-18T09:14:11.741Z,44.56
2018-04-18T09:16:40.146Z,44.12
2018-04-18T09:19:08.603Z,43.74
2018-04-18T09:21:38.473Z,43.83
2018-04-18T09:24:08.441Z,44.11
2018-04-18T09:26:38.047Z,43.81
2018-04-18T09:29:09.104Z,43.50
2018-04-18T09:31:39.719Z,43.39
2018-04-18T09:34:08.115Z,43.27
2018-04-18T09:36:36.543Z,43.25
2018-04-18T09:39:05.014Z,43.52
2018-04-18T09:41:34.243Z,43.43
2018-04-18T09:44:02.639Z,43.29
2018-04-18T09:46:31.852Z,42.75
2018-04-18T09:49:00.225Z,42.55
2018-04-18T09:51:28.668Z,42.18
2018-04-18T09:53:57.065Z,41.75
2018-04-18T09:56:25.456Z,42.06
2018-04-18T09:58:53.951Z,42.13
2018-04-18T10:01:22.425Z,42.00
2018-04-18T10:03:56.530Z,42.00
2018-04-18T10:06:24.999Z,41.41
2018-04-18T10:08:53.396Z,40.89
2018-04-18T10:11:21.850Z,40.85
2018-04-18T10:13:50.952Z,40.53
2018-04-18T10:16:19.517Z,40.67
2018-04-18T10:18:47.896Z,41.09
2018-04-18T10:21:16.294Z,39.96
2018-04-18T10:23:44.719Z,39.82
2018-04-18T10:26:13.946Z,39.15
2018-04-18T10:28:43.203Z,39.48
2018-04-18T10:31:11.706Z,39.29
2018-04-18T10:33:40.847Z,39.92
2018-04-18T10:36:10.045Z,40.15
2018-04-18T10:38:38.494Z,41.07
2018-04-18T10:41:09.290Z,39.78
2018-04-18T10:43:37.824Z,38.95
2018-04-18T10:46:06.199Z,39.53
2018-04-18T10:48:35.346Z,38.99
2018-04-18T10:51:03.789Z,38.44
2018-04-18T10:53:32.219Z,39.53
2018-04-18T10:56:02.218Z,38.05
2018-04-18T10:58:30.679Z,38.44
2018-04-18T11:00:59.152Z,38.59
2018-04-18T11:03:28.046Z,38.10
2018-04-18T11:05:56.495Z,37.80
2018-04-18T11:08:24.863Z,37.54
2018-04-18T11:10:54.878Z,37.10
2018-04-18T11:13:23.254Z,36.85
2018-04-18T11:15:52.687Z,36.84
2018-04-18T11:18:21.115Z,37.18
2018-04-18T11:20:49.568Z,36.83
2018-04-18T11:23:18.015Z,36.73
2018-04-18T11:25:47.213Z,35.92
2018-04-18T11:28:16.414Z,36.45
2018-04-18T11:30:45.591Z,36.63
2018-04-18T11:33:13.998Z,36.63
2018-04-18T11:35:42.535Z,36.03
2018-04-18T11:38:10.962Z,36.32
2018-04-18T11:40:39.339Z,36.52
2018-04-18T11:43:07.717Z,36.83
2018-04-18T11:45:36.112Z,36.87
2018-04-18T11:48:04.514Z,37.33
2018-04-18T11:50:32.911Z,36.38
2018-04-18T11:55:26.538Z,37.43
2018-04-18T11:57:54.935Z,37.26
2018-04-18T12:00:23.430Z,37.01
2018-04-18T12:02:51.812Z,35.17
2018-04-18T12:05:20.192Z,36.42
2018-04-18T12:07:49.596Z,36.77
2018-04-18T12:10:18.085Z,37.15
2018-04-18T12:12:46.972Z,35.78
2018-04-18T12:15:15.337Z,35.78
2018-04-18T12:17:43.702Z,35.13
2018-04-18T12:20:12.104Z,35.18
2018-04-18T12:22:41.225Z,35.49
2018-04-18T12:25:09.598Z,35.72
2018-04-18T12:27:38.051Z,35.84
2018-04-18T12:30:06.534Z,35.62
2018-04-18T12:32:34.948Z,35.00
2018-04-18T12:35:03.469Z,35.59
2018-04-18T12:37:31.929Z,36.11
2018-04-18T12:40:01.074Z,36.01
2018-04-18T12:42:29.479Z,35.98
2018-04-18T12:44:58.029Z,34.88
2018-04-18T12:47:26.618Z,34.37
2018-04-18T12:49:54.997Z,34.35
2018-04-18T12:52:23.359Z,34.71
2018-04-18T12:54:51.732Z,34.67
2018-04-18T12:57:20.093Z,34.13
2018-04-18T12:59:50.071Z,33.75
2018-04-18T13:02:18.428Z,34.35
2018-04-18T13:04:46.980Z,34.13
2018-04-18T13:07:15.885Z,33.52
2018-04-18T13:09:47.447Z,33.20
2018-04-18T13:12:15.822Z,33.63
2018-04-18T13:14:44.199Z,33.70
2018-04-18T13:17:12.584Z,33.34
2018-04-18T13:19:41.027Z,33.58
2018-04-18T13:22:10.129Z,33.57
2018-04-18T13:24:39.281Z,33.05
2018-04-18T13:27:08.694Z,33.04
2018-04-18T13:29:39.628Z,33.46
2018-04-18T13:32:09.668Z,33.22
2018-04-18T13:34:38.866Z,32.15
2018-04-18T13:37:08.022Z,32.87
2018-04-18T13:39:36.500Z,32.33
2018-04-18T13:42:05.065Z,33.88
2018-04-18T13:44:34.092Z,32.60
2018-04-18T13:47:03.443Z,31.80
2018-04-18T13:49:33.517Z,31.96
2018-04-18T13:52:01.912Z,31.88
2018-04-18T13:54:31.189Z,31.41
2018-04-18T13:56:59.558Z,31.94
2018-04-18T13:59:27.944Z,31.52
2018-04-18T14:01:56.338Z,32.55
2018-04-18T14:04:25.067Z,31.82
2018-04-18T14:06:54.212Z,31.54
2018-04-18T14:09:22.618Z,32.14
2018-04-18T14:11:52.744Z,31.46
2018-04-18T14:14:22.298Z,32.46
2018-04-18T14:16:50.721Z,32.25
2018-04-18T14:19:19.863Z,32.62
2018-04-18T14:21:48.279Z,31.72
2018-04-18T14:24:16.772Z,32.17
2018-04-18T14:26:45.440Z,31.81
2018-04-18T14:29:14.034Z,31.35
2018-04-18T14:31:42.554Z,30.82
2018-04-18T14:34:12.030Z,31.45
2018-04-18T14:36:40.432Z,30.50
2018-04-18T14:39:10.438Z,30.58
2018-04-18T14:41:39.545Z,31.83
2018-04-18T14:44:09.618Z,30.88
2018-04-18T14:46:39.329Z,31.62
2018-04-18T14:49:07.677Z,31.06
2018-04-18T14:51:36.784Z,31.10
2018-04-18T14:54:05.222Z,31.40
2018-04-18T14:56:34.388Z,31.02
2018-04-18T14:59:02.777Z,31.84
2018-04-18T15:01:31.993Z,31.46
2018-04-18T15:04:01.189Z,31.05
2018-04-18T15:06:30.330Z,31.32
2018-04-18T15:08:58.716Z,31.38
2018-04-18T15:11:27.094Z,31.13
2018-04-18T15:13:55.432Z,30.24
2018-04-18T15:16:23.782Z,30.63
2018-04-18T15:18:52.934Z,30.66
2018-04-18T15:21:22.092Z,31.19
2018-04-18T15:23:52.027Z,31.73
2018-04-18T15:26:23.149Z,30.92
2018-04-18T15:28:51.587Z,31.87
2018-04-18T15:31:19.961Z,31.08
2018-04-18T15:33:48.394Z,31.19
2018-04-18T15:36:16.760Z,31.80
2018-04-18T15:38:45.522Z,31.71
2018-04-18T15:41:14.749Z,31.90
2018-04-18T15:43:43.821Z,31.82
2018-04-18T15:46:12.222Z,31.65
2018-04-18T15:48:41.078Z,31.29
2018-04-18T15:51:09.743Z,31.30
2018-04-18T15:53:38.089Z,32.24
2018-04-18T15:56:07.244Z,30.39
2018-04-18T15:58:36.452Z,29.88
2018-04-18T16:01:04.821Z,30.41
2018-04-18T16:03:33.197Z,29.28
2018-04-18T16:06:02.239Z,28.60
2018-04-18T16:08:31.401Z,28.51
2018-04-18T16:11:01.530Z,29.58
2018-04-18T16:13:29.979Z,28.77
2018-04-18T16:15:58.382Z,30.37
2018-04-18T16:18:27.658Z,30.17
2018-04-18T16:20:56.113Z,30.25
2018-04-18T16:23:24.531Z,30.17
2018-04-18T16:25:55.410Z,30.48
2018-04-18T16:28:23.914Z,31.11
2018-04-18T16:30:52.296Z,31.02
2018-04-18T16:33:22.402Z,31.14
2018-04-18T16:35:50.791Z,30.43
2018-04-18T16:38:19.289Z,31.44
2018-04-18T16:40:48.548Z,31.46
2018-04-18T16:43:18.945Z,31.57
2018-04-18T16:45:47.683Z,31.37
2018-04-18T16:48:16.923Z,31.45
2018-04-18T16:50:45.374Z,31.78
2018-04-18T16:53:13.788Z,31.93
2018-04-18T16:55:42.174Z,32.22
2018-04-18T16:58:12.065Z,32.41
2018-04-18T17:00:40.620Z,33.57
2018-04-18T17:03:09.060Z,33.99
2018-04-18T17:05:37.422Z,33.68
2018-04-18T17:08:05.833Z,33.55
2018-04-18T17:10:34.939Z,34.40
2018-04-18T17:13:04.050Z,34.71
2018-04-18T17:15:32.482Z,35.02
2018-04-18T17:18:00.964Z,34.83
2018-04-18T17:20:30.037Z,34.09
2018-04-18T17:22:59.440Z,33.61
2018-04-18T17:25:27.889Z,36.69
2018-04-18T17:28:01.525Z,34.78
2018-04-18T17:30:31.345Z,35.83
2018-04-18T17:33:01.455Z,36.84
2018-04-18T17:35:29.862Z,37.19
2018-04-18T17:37:59.903Z,36.15
2018-04-18T17:40:29.154Z,36.02
2018-04-18T17:42:57.579Z,35.68
2018-04-18T17:45:26.807Z,36.26
2018-04-18T17:47:55.266Z,36.89
2018-04-18T17:50:23.770Z,37.08
2018-04-18T17:52:52.197Z,36.56
2018-04-18T17:55:20.746Z,37.06
2018-04-18T17:57:49.208Z,37.31
2018-04-18T18:00:17.794Z,37.53
2018-04-18T18:02:46.640Z,37.81
2018-04-18T18:05:15.130Z,38.03
2018-04-18T18:07:44.308Z,41.34
2018-04-18T18:10:12.747Z,39.03
2018-04-18T18:12:41.094Z,40.14
2018-04-18T18:15:11.014Z,41.75
2018-04-18T18:17:41.224Z,39.29
2018-04-18T18:20:10.464Z,39.36
2018-04-18T18:22:38.956Z,38.88
2018-04-18T18:25:07.521Z,39.00
2018-04-18T18:27:36.890Z,39.56
2018-04-18T18:30:05.404Z,40.26
2018-04-18T18:32:34.248Z,40.14
2018-04-18T18:35:02.637Z,40.60
2018-04-18T18:37:32.332Z,40.51
2018-04-18T18:40:01.526Z,40.88
2018-04-18T18:42:29.950Z,41.18
2018-04-18T18:44:58.413Z,41.25
2018-04-18T18:47:27.545Z,41.48
2018-04-18T18:49:56.049Z,41.29
2018-04-18T18:52:24.425Z,41.31
2018-04-18T18:54:52.789Z,41.30
2018-04-18T18:57:21.125Z,41.58
2018-04-18T18:59:50.277Z,41.31
2018-04-18T19:02:19.770Z,41.93
2018-04-18T19:04:48.173Z,42.03
2018-04-18T19:07:16.664Z,42.04
2018-04-18T19:09:45.100Z,42.24
2018-04-18T19:12:14.339Z,42.34
2018-04-18T19:14:42.779Z,42.24
2018-04-18T19:17:11.184Z,42.62
2018-04-18T19:19:39.546Z,43.01
2018-04-18T19:22:08.035Z,42.98
2018-04-18T19:24:36.574Z,43.08
2018-04-18T19:27:05.736Z,42.47
2018-04-18T19:29:34.108Z,42.77
2018-04-18T19:32:02.542Z,43.33
2018-04-18T19:34:31.052Z,43.34
2018-04-18T19:36:59.661Z,42.86
2018-04-18T19:39:28.031Z,43.78
2018-04-18T19:41:57.232Z,43.05
2018-04-18T19:44:25.611Z,43.26
2018-04-18T19:46:54.015Z,44.06
2018-04-18T19:49:22.401Z,43.90
2018-04-18T19:51:52.385Z,43.68
2018-04-18T19:54:20.763Z,43.92
2018-04-18T19:56:49.256Z,44.25
2018-04-18T19:59:17.757Z,44.55
2018-04-18T20:01:46.125Z,44.52
2018-04-18T20:07:45.981Z,45.10
2018-04-18T20:10:14.431Z,45.11
2018-04-18T20:12:42.775Z,44.88
2018-04-18T20:15:11.195Z,45.69
2018-04-18T20:17:39.641Z,45.71
2018-04-18T20:20:08.064Z,46.06
2018-04-18T20:22:36.709Z,45.52
2018-04-18T20:25:05.050Z,45.90
2018-04-18T20:27:33.475Z,46.21
2018-04-18T20:30:02.909Z,46.52
2018-04-18T20:32:32.358Z,46.50
2018-04-18T20:35:00.684Z,46.85
2018-04-18T20:37:29.098Z,46.71
2018-04-18T20:39:58.082Z,47.37
2018-04-18T20:42:27.249Z,47.58
2018-04-18T20:44:55.611Z,47.21
2018-04-18T20:47:24.540Z,47.53
2018-04-18T20:49:53.710Z,47.81
2018-04-18T20:52:22.204Z,47.79
2018-04-18T20:54:50.573Z,47.93
2018-04-18T20:57:19.946Z,48.09
2018-04-18T20:59:48.334Z,47.94
2018-04-18T21:02:16.750Z,48.11
2018-04-18T21:04:47.642Z,48.19
2018-04-18T21:07:16.035Z,48.47
2018-04-18T21:09:44.496Z,48.35
2018-04-18T21:12:12.907Z,48.80
2018-04-18T21:14:41.308Z,48.75
2018-04-18T21:17:09.695Z,48.38
2018-04-18T21:19:38.813Z,48.53
2018-04-18T21:22:07.196Z,48.66
2018-04-18T21:24:35.562Z,48.93
2018-04-18T21:27:04.731Z,49.04
2018-04-18T21:29:33.068Z,49.51
2018-04-18T21:32:01.482Z,49.78
2018-04-18T21:34:30.829Z,49.79
2018-04-18T21:36:59.219Z,49.72
2018-04-18T21:39:27.622Z,50.07
2018-04-18T21:41:56.095Z,50.06
2018-04-18T21:44:24.465Z,50.32
2018-04-18T21:46:52.857Z,50.48
2018-04-18T21:49:21.225Z,50.50
2018-04-18T21:51:49.581Z,50.83
2018-04-18T21:54:17.919Z,50.97
2018-04-18T21:56:46.371Z,51.36
2018-04-18T21:59:14.735Z,51.28
2018-04-18T22:01:43.088Z,51.28
2018-04-18T22:04:12.205Z,51.35
2018-04-18T22:06:41.515Z,51.44
2018-04-18T22:09:10.882Z,51.65
2018-04-18T22:11:40.232Z,51.57
2018-04-18T22:14:08.645Z,51.49
2018-04-18T22:16:37.789Z,50.76
2018-04-18T22:19:06.190Z,51.31
2018-04-18T22:21:34.574Z,51.80
2018-04-18T22:24:02.935Z,51.96
2018-04-18T22:26:31.323Z,52.12
2018-04-18T22:28:59.675Z,52.39
2018-04-18T22:31:28.055Z,52.89
2018-04-18T22:33:56.402Z,52.73
2018-04-18T22:36:27.919Z,52.36
2018-04-18T22:38:56.291Z,52.83
2018-04-18T22:41:25.021Z,52.59
2018-04-18T22:43:54.490Z,52.67
2018-04-18T22:46:22.869Z,52.75
2018-04-18T22:48:51.256Z,52.98
2018-04-18T22:51:19.665Z,52.54
2018-04-18T22:53:48.794Z,52.99
2018-04-18T22:56:17.206Z,53.24
2018-04-18T22:58:45.676Z,53.09
2018-04-18T23:01:14.135Z,53.35
2018-04-18T23:03:42.490Z,53.37
2018-04-18T23:06:10.989Z,53.88
2018-04-18T23:08:39.346Z,53.81
2018-04-18T23:11:08.448Z,54.00
2018-04-18T23:13:36.809Z,54.09
2018-04-18T23:16:05.922Z,54.16
2018-04-18T23:18:34.343Z,53.98
2018-04-18T23:21:02.825Z,54.82
2018-04-18T23:23:31.188Z,54.85
2018-04-18T23:25:59.576Z,54.80
2018-04-18T23:28:27.930Z,54.64
2018-04-18T23:30:56.406Z,54.85
2018-04-18T23:33:24.779Z,54.60
2018-04-18T23:35:53.169Z,54.57
2018-04-18T23:38:21.858Z,54.63
2018-04-18T23:40:51.078Z,54.44
2018-04-18T23:43:19.419Z,54.29
2018-04-18T23:45:48.617Z,54.92
2018-04-18T23:48:17.070Z,54.42
2018-04-18T23:50:45.463Z,54.23
2018-04-18T23:53:14.597Z,54.51
2018-04-18T23:55:42.945Z,54.86
2018-04-18T23:58:12.144Z,54.55
